createdAt,value
2019-05-14T00:01:07.548Z,101868.17
2019-05-14T00:06:11.947Z,101868.17
2019-05-14T00:11:16.301Z,101871.58
2019-05-14T00:16:23.813Z,101858.25
2019-05-14T00:21:26.901Z,101851.19
2019-05-14T00:26:31.841Z,101846.75
2019-05-14T00:31:36.378Z,101849.88
2019-05-14T00:36:41.639Z,101849.92
2019-05-14T00:41:46.286Z,101847.48
2019-05-14T00:46:51.614Z,101853.69
2019-05-14T00:51:56.182Z,101846.73
2019-05-14T00:57:01.440Z,101855.54
2019-05-14T01:02:06.005Z,101851.84
2019-05-14T01:07:11.842Z,101853.94
2019-05-14T01:12:18.668Z,101843.69
2019-05-14T01:17:22.967Z,101839.86
2019-05-14T01:22:27.352Z,101848.04
2019-05-14T01:27:31.871Z,101851.59
2019-05-14T01:32:36.278Z,101848.34
2019-05-14T01:37:41.661Z,101845.99
2019-05-14T01:42:47.210Z,101850.95
2019-05-14T01:47:52.133Z,101855.11
2019-05-14T01:52:56.509Z,101855.89
2019-05-14T01:58:02.309Z,101854.23
2019-05-14T02:03:07.958Z,101851.19
2019-05-14T02:08:13.368Z,101849.75
2019-05-14T02:13:17.723Z,101849.54
2019-05-14T02:18:22.069Z,101851.03
2019-05-14T02:23:26.435Z,101850.73
2019-05-14T02:28:31.463Z,101843.11
2019-05-14T02:33:39.450Z,101843.60
2019-05-14T02:38:42.136Z,101848.61
2019-05-14T02:43:49.919Z,101847.44
2019-05-14T02:48:52.604Z,101843.11
2019-05-14T02:53:59.181Z,101831.02
2019-05-14T02:59:05.785Z,101836.95
2019-05-14T03:04:09.780Z,101843.86
2019-05-14T03:09:14.283Z,101851.11
2019-05-14T03:14:19.509Z,101843.65
2019-05-14T03:19:24.184Z,101845.74
2019-05-14T03:24:29.803Z,101849.17
2019-05-14T03:29:34.196Z,101837.05
2019-05-14T03:34:42.880Z,101843.59
2019-05-14T03:39:44.621Z,101841.33
2019-05-14T03:44:49.232Z,101843.53
2019-05-14T03:49:53.892Z,101843.20
2019-05-14T03:55:01.300Z,101839.73
2019-05-14T04:00:06.048Z,101835.34
2019-05-14T04:05:12.126Z,101838.33
2019-05-14T04:10:19.513Z,101830.90
2019-05-14T04:15:24.327Z,101827.59
2019-05-14T04:20:30.254Z,101825.12
2019-05-14T04:25:39.040Z,101833.11
2019-05-14T04:30:44.095Z,101833.77
2019-05-14T04:35:49.187Z,101840.96
2019-05-14T04:40:53.661Z,101839.22
2019-05-14T04:45:59.217Z,101845.19
2019-05-14T04:51:04.066Z,101836.83
2019-05-14T04:56:09.820Z,101842.75
2019-05-14T05:01:14.485Z,101830.15
2019-05-14T05:06:19.236Z,101834.42
2019-05-14T05:11:23.815Z,101839.21
2019-05-14T05:16:29.558Z,101836.23
2019-05-14T05:21:34.332Z,101837.20
2019-05-14T05:26:39.362Z,101835.28
2019-05-14T05:31:43.835Z,101829.37
2019-05-14T05:36:48.684Z,101830.43
2019-05-14T05:41:53.087Z,101827.23
2019-05-14T05:46:59.639Z,101819.64
2019-05-14T05:52:03.543Z,101818.33
2019-05-14T05:57:09.305Z,101815.34
2019-05-14T06:02:14.606Z,101819.77
2019-05-14T06:07:18.969Z,101825.09
2019-05-14T06:12:23.368Z,101818.86
2019-05-14T06:17:28.524Z,101817.65
2019-05-14T06:22:33.065Z,101810.22
2019-05-14T06:27:38.002Z,101805.22
2019-05-14T06:32:42.577Z,101810.88
2019-05-14T06:37:49.035Z,101805.63
2019-05-14T06:42:53.073Z,101811.09
2019-05-14T06:47:59.316Z,101805.53
2019-05-14T06:53:03.768Z,101798.20
2019-05-14T06:58:09.201Z,101792.59
2019-05-14T07:03:13.711Z,101804.77
2019-05-14T07:08:18.799Z,101797.34
2019-05-14T07:13:23.411Z,101792.08
2019-05-14T07:18:30.236Z,101798.98
2019-05-14T07:23:38.187Z,101785.25
2019-05-14T07:28:42.650Z,101785.97
2019-05-14T07:33:49.333Z,101783.83
2019-05-14T07:38:56.396Z,101780.34
2019-05-14T07:43:59.181Z,101781.63
2019-05-14T07:49:08.451Z,101776.39
2019-05-14T07:54:09.583Z,101765.91
2019-05-14T07:59:13.961Z,101788.20
2019-05-14T08:04:20.007Z,101774.17
2019-05-14T08:09:24.536Z,101767.67
2019-05-14T08:14:33.608Z,101761.55
2019-05-14T08:19:34.995Z,101776.31
2019-05-14T08:24:39.493Z,101764.17
2019-05-14T08:29:43.866Z,101763.23
2019-05-14T08:34:48.310Z,101755.70
2019-05-14T08:39:52.765Z,101763.62
2019-05-14T08:44:59.179Z,101761.91
2019-05-14T08:50:03.277Z,101758.91
2019-05-14T08:55:11.103Z,101760.60
2019-05-14T09:00:14.309Z,101761.02
2019-05-14T09:05:18.715Z,101752.30
2019-05-14T09:10:24.145Z,101760.63
2019-05-14T09:15:28.895Z,101747.56
2019-05-14T09:20:33.366Z,101750.64
2019-05-14T09:25:46.431Z,101733.62
2019-05-14T09:30:43.949Z,101726.62
2019-05-14T09:35:49.355Z,101727.92
2019-05-14T09:41:06.947Z,101736.20
2019-05-14T09:46:00.001Z,101713.03
2019-05-14T09:51:04.368Z,101720.10
2019-05-14T09:56:09.255Z,101709.17
2019-05-14T10:01:13.683Z,101736.25
2019-05-14T10:06:20.663Z,101713.10
2019-05-14T10:11:24.279Z,101712.20
2019-05-14T10:16:29.208Z,101687.37
2019-05-14T10:21:33.707Z,101685.13
2019-05-14T10:26:39.451Z,101666.25
2019-05-14T10:31:44.055Z,101649.31
2019-05-14T10:36:48.439Z,101657.25
2019-05-14T10:41:52.791Z,101669.47
2019-05-14T10:46:58.267Z,101662.48
2019-05-14T10:52:02.825Z,101656.80
2019-05-14T10:57:09.559Z,101650.30
2019-05-14T11:02:13.261Z,101646.80
2019-05-14T11:07:18.624Z,101632.38
2019-05-14T11:12:23.167Z,101629.21
2019-05-14T11:17:29.088Z,101640.22
2019-05-14T11:22:33.786Z,101645.38
2019-05-14T11:27:38.903Z,101656.81
2019-05-14T11:32:43.492Z,101660.72
2019-05-14T11:37:48.349Z,101649.73
2019-05-14T11:42:52.948Z,101616.94
2019-05-14T11:47:58.448Z,101616.94
2019-05-14T11:53:03.231Z,101604.03
2019-05-14T11:58:08.752Z,101583.85
2019-05-14T12:03:14.100Z,101580.02
2019-05-14T12:08:18.896Z,101574.72
2019-05-14T12:13:23.466Z,101579.17
2019-05-14T12:18:29.190Z,101610.59
2019-05-14T12:23:33.829Z,101664.75
2019-05-14T12:28:38.753Z,101635.05
2019-05-14T12:33:43.326Z,101618.71
2019-05-14T12:38:47.709Z,101608.70
2019-05-14T12:43:52.226Z,101615.97
2019-05-14T12:48:58.949Z,101608.23
2019-05-14T12:54:02.818Z,101603.92
2019-05-14T12:59:07.261Z,101599.58
2019-05-14T13:04:11.626Z,101594.41
2019-05-14T13:09:20.833Z,101590.84
2019-05-14T13:14:22.075Z,101577.42
2019-05-14T13:19:28.494Z,101571.34
2019-05-14T13:24:32.615Z,101572.99
2019-05-14T13:29:36.975Z,101571.22
2019-05-14T13:34:41.372Z,101554.36
2019-05-14T13:39:50.008Z,101544.77
2019-05-14T13:44:51.887Z,101540.36
2019-05-14T13:49:59.060Z,101533.78
2019-05-14T13:55:02.299Z,101525.06
2019-05-14T14:00:11.871Z,101512.78
2019-05-14T14:05:15.120Z,101513.79
2019-05-14T14:10:19.512Z,101514.63
2019-05-14T14:15:24.830Z,101510.73
2019-05-14T14:20:29.276Z,101502.00
2019-05-14T14:25:33.806Z,101496.74
2019-05-14T14:30:39.626Z,101491.47
2019-05-14T14:35:44.194Z,101486.63
2019-05-14T14:40:48.794Z,101484.88
2019-05-14T14:45:53.129Z,101474.20
2019-05-14T14:50:58.613Z,101463.30
2019-05-14T14:56:03.236Z,101452.41
2019-05-14T15:01:08.899Z,101454.05
2019-05-14T15:06:14.573Z,101452.69
2019-05-14T15:11:19.083Z,101455.69
2019-05-14T15:16:24.212Z,101445.75
2019-05-14T15:21:29.909Z,101442.65
2019-05-14T15:26:35.495Z,101436.69
2019-05-14T15:31:40.022Z,101428.85
2019-05-14T15:36:44.340Z,101421.91
2019-05-14T15:41:49.858Z,101408.44
2019-05-14T15:46:54.448Z,101411.38
2019-05-14T15:51:58.828Z,101408.73
2019-05-14T15:57:03.191Z,101401.08
2019-05-14T16:02:09.427Z,101402.82
2019-05-14T16:07:13.671Z,101397.24
2019-05-14T16:12:19.686Z,101382.45
2019-05-14T16:17:30.368Z,101374.28
2019-05-14T16:22:35.000Z,101376.36
2019-05-14T16:27:39.958Z,101374.07
2019-05-14T16:32:44.533Z,101369.86
2019-05-14T16:37:48.910Z,101361.34
2019-05-14T16:42:53.279Z,101358.83
2019-05-14T16:47:59.315Z,101356.70
2019-05-14T16:53:03.791Z,101354.66
2019-05-14T16:58:08.953Z,101346.82
2019-05-14T17:03:13.400Z,101353.69
2019-05-14T17:08:19.001Z,101331.64
2019-05-14T17:13:23.582Z,101331.83
2019-05-14T17:18:28.710Z,101327.55
2019-05-14T17:23:33.278Z,101323.70
2019-05-14T17:28:40.339Z,101325.84
2019-05-14T17:33:43.738Z,101329.92
2019-05-14T17:38:49.148Z,101323.41
2019-05-14T17:43:53.883Z,101330.88
2019-05-14T17:48:59.188Z,101333.97
2019-05-14T17:54:03.671Z,101335.74
2019-05-14T17:59:08.722Z,101339.27
2019-05-14T18:04:13.304Z,101334.53
2019-05-14T18:09:19.794Z,101333.23
2019-05-14T18:14:23.815Z,101338.13
2019-05-14T18:19:29.022Z,101338.15
2019-05-14T18:24:34.567Z,101340.41
2019-05-14T18:29:39.227Z,101337.86
2019-05-14T18:34:43.651Z,101344.02
2019-05-14T18:39:48.530Z,101347.98
2019-05-14T18:44:52.959Z,101348.45
2019-05-14T18:49:59.507Z,101348.07
2019-05-14T18:55:08.470Z,101352.51
2019-05-14T19:00:34.001Z,101357.75
2019-05-14T19:05:38.447Z,101363.88
2019-05-14T19:10:42.885Z,101353.89
2019-05-14T19:15:48.349Z,101359.59
2019-05-14T19:20:52.807Z,101361.33
2019-05-14T19:25:59.171Z,101360.03
2019-05-14T19:31:03.231Z,101358.27
2019-05-14T19:36:08.833Z,101356.55
2019-05-14T19:41:13.408Z,101353.92
2019-05-14T19:46:17.742Z,101348.72
2019-05-14T19:51:22.082Z,101353.06
2019-05-14T19:56:29.116Z,101349.14
2019-05-14T20:01:32.538Z,101355.69
2019-05-14T20:06:38.857Z,101354.79
2019-05-14T20:11:42.975Z,101360.41
2019-05-14T20:16:49.080Z,101360.88
2019-05-14T20:21:54.716Z,101357.36
2019-05-14T20:27:08.229Z,101357.33
2019-05-14T20:32:05.188Z,101353.86
2019-05-14T20:37:09.576Z,101360.37
2019-05-14T20:42:14.013Z,101359.06
2019-05-14T20:47:18.991Z,101354.72
2019-05-14T20:52:23.534Z,101349.02
2019-05-14T20:57:33.214Z,101355.50
2019-05-14T21:02:33.981Z,101353.34
2019-05-14T21:07:38.676Z,101356.77
2019-05-14T21:12:43.250Z,101350.23
2019-05-14T21:17:50.249Z,101344.07
2019-05-14T21:22:53.894Z,101344.08
2019-05-14T21:27:58.941Z,101341.85
2019-05-14T21:33:04.529Z,101346.10
2019-05-14T21:38:09.855Z,101345.59
2019-05-14T21:43:14.221Z,101346.47
2019-05-14T21:48:19.903Z,101351.64
2019-05-14T21:53:24.467Z,101341.19
2019-05-14T21:58:29.215Z,101344.16
2019-05-14T22:03:33.627Z,101329.75
2019-05-14T22:08:39.244Z,101327.51
2019-05-14T22:13:43.964Z,101322.21
2019-05-14T22:18:48.490Z,101322.69
2019-05-14T22:23:52.968Z,101320.91
2019-05-14T22:28:58.682Z,101312.31
2019-05-14T22:34:03.192Z,101305.38
2019-05-14T22:39:07.547Z,101303.08
2019-05-14T22:44:11.891Z,101294.48
2019-05-14T22:49:18.623Z,101301.55
2019-05-14T22:54:22.335Z,101298.31
2019-05-14T22:59:28.337Z,101298.78
2019-05-14T23:04:32.858Z,101291.84
2019-05-14T23:09:38.804Z,101293.66
2019-05-14T23:14:43.242Z,101279.38
2019-05-14T23:19:48.359Z,101288.02
2019-05-14T23:24:52.829Z,101282.52
2019-05-14T23:29:58.699Z,101274.67
2019-05-14T23:35:03.372Z,101270.77
2019-05-14T23:40:08.562Z,101266.95
2019-05-14T23:45:13.168Z,101268.25
2019-05-14T23:50:17.579Z,101276.38
2019-05-14T23:55:21.948Z,101278.64
